sensor_id;sensor_type;location;lat;lon;timestamp;temperature;humidity
13203;DHT22;6666;51.626;7.530;2023-02-03T00:00:04;8.60;99.90
13203;DHT22;6666;51.626;7.530;2023-02-03T00:02:36;8.60;99.90
13203;DHT22;6666;51.626;7.530;2023-02-03T00:05:07;8.60;99.90
13203;DHT22;6666;51.626;7.530;2023-02-03T00:07:36;8.60;99.90
13203;DHT22;6666;51.626;7.530;2023-02-03T00:10:06;8.60;99.90
13203;DHT22;6666;51.626;7.530;2023-02-03T00:12:35;8.60;99.90
13203;DHT22;6666;51.626;7.530;2023-02-03T00:15:04;8.70;99.90
13203;DHT22;6666;51.626;7.530;2023-02-03T00:17:32;8.70;99.90
13203;DHT22;6666;51.626;7.530;2023-02-03T00:20:01;8.70;99.90
13203;DHT22;6666;51.626;7.530;2023-02-03T00:22:30;8.70;99.90
13203;DHT22;6666;51.626;7.530;2023-02-03T00:24:58;8.70;99.90
13203;DHT22;6666;51.626;7.530;2023-02-03T00:27:27;8.70;99.90
13203;DHT22;6666;51.626;7.530;2023-02-03T00:29:55;8.70;99.90
13203;DHT22;6666;51.626;7.530;2023-02-03T00:32:23;8.70;99.90
13203;DHT22;6666;51.626;7.530;2023-02-03T00:34:52;8.70;99.90
13203;DHT22;6666;51.626;7.530;2023-02-03T00:37:20;8.60;99.90
13203;DHT22;6666;51.626;7.530;2023-02-03T00:39:50;8.70;99.90
13203;DHT22;6666;51.626;7.530;2023-02-03T00:42:18;8.70;99.90
13203;DHT22;6666;51.626;7.530;2023-02-03T00:44:47;8.70;99.90
13203;DHT22;6666;51.626;7.530;2023-02-03T00:47:15;8.70;99.90
13203;DHT22;6666;51.626;7.530;2023-02-03T00:49:43;8.70;99.90
13203;DHT22;6666;51.626;7.530;2023-02-03T00:52:11;8.70;99.90
13203;DHT22;6666;51.626;7.530;2023-02-03T00:54:40;8.70;99.90
13203;DHT22;6666;51.626;7.530;2023-02-03T00:57:09;8.70;99.90
13203;DHT22;6666;51.626;7.530;2023-02-03T00:59:38;8.70;99.90
13203;DHT22;6666;51.626;7.530;2023-02-03T01:02:07;8.70;99.90
13203;DHT22;6666;51.626;7.530;2023-02-03T01:04:36;8.70;99.90
13203;DHT22;6666;51.626;7.530;2023-02-03T01:07:04;8.70;99.90
13203;DHT22;6666;51.626;7.530;2023-02-03T01:09:35;8.70;99.90
13203;DHT22;6666;51.626;7.530;2023-02-03T01:12:04;8.70;99.90
13203;DHT22;6666;51.626;7.530;2023-02-03T01:14:34;8.80;99.90
13203;DHT22;6666;51.626;7.530;2023-02-03T01:17:03;8.80;99.90
13203;DHT22;6666;51.626;7.530;2023-02-03T01:19:31;8.80;99.90
13203;DHT22;6666;51.626;7.530;2023-02-03T01:22:00;8.80;99.90
13203;DHT22;6666;51.626;7.530;2023-02-03T01:24:28;8.80;99.90
13203;DHT22;6666;51.626;7.530;2023-02-03T01:26:57;8.80;99.90
13203;DHT22;6666;51.626;7.530;2023-02-03T01:29:27;8.80;99.90
13203;DHT22;6666;51.626;7.530;2023-02-03T01:31:56;8.80;99.90
13203;DHT22;6666;51.626;7.530;2023-02-03T01:34:25;8.80;99.90
13203;DHT22;6666;51.626;7.530;2023-02-03T01:36:53;8.80;99.90
13203;DHT22;6666;51.626;7.530;2023-02-03T01:39:21;8.80;99.90
13203;DHT22;6666;51.626;7.530;2023-02-03T01:41:54;8.80;99.90
13203;DHT22;6666;51.626;7.530;2023-02-03T01:44:38;8.80;99.90
13203;DHT22;6666;51.626;7.530;2023-02-03T01:47:16;8.90;99.90
13203;DHT22;6666;51.626;7.530;2023-02-03T01:49:48;8.90;99.90
13203;DHT22;6666;51.626;7.530;2023-02-03T01:52:19;8.90;99.90
13203;DHT22;6666;51.626;7.530;2023-02-03T01:54:49;8.90;99.90
13203;DHT22;6666;51.626;7.530;2023-02-03T01:57:21;8.90;99.90
13203;DHT22;6666;51.626;7.530;2023-02-03T01:59:52;8.90;99.90
13203;DHT22;6666;51.626;7.530;2023-02-03T02:02:22;8.90;99.90
13203;DHT22;6666;51.626;7.530;2023-02-03T02:04:55;8.90;99.90
13203;DHT22;6666;51.626;7.530;2023-02-03T02:07:25;8.90;99.90
13203;DHT22;6666;51.626;7.530;2023-02-03T02:09:54;8.90;99.90
13203;DHT22;6666;51.626;7.530;2023-02-03T02:12:23;8.90;99.90
13203;DHT22;6666;51.626;7.530;2023-02-03T02:14:51;8.90;99.90
13203;DHT22;6666;51.626;7.530;2023-02-03T02:17:40;8.90;99.90
13203;DHT22;6666;51.626;7.530;2023-02-03T02:20:33;9.00;99.90
13203;DHT22;6666;51.626;7.530;2023-02-03T02:23:49;8.90;99.90
13203;DHT22;6666;51.626;7.530;2023-02-03T02:26:43;8.90;99.90
13203;DHT22;6666;51.626;7.530;2023-02-03T02:29:46;9.00;99.90
13203;DHT22;6666;51.626;7.530;2023-02-03T02:32:31;8.90;99.90
13203;DHT22;6666;51.626;7.530;2023-02-03T02:35:06;8.90;99.90
13203;DHT22;6666;51.626;7.530;2023-02-03T02:37:46;8.90;99.90
13203;DHT22;6666;51.626;7.530;2023-02-03T02:40:24;9.00;99.90
13203;DHT22;6666;51.626;7.530;2023-02-03T02:43:02;8.90;99.90
13203;DHT22;6666;51.626;7.530;2023-02-03T02:45:40;8.90;99.90
13203;DHT22;6666;51.626;7.530;2023-02-03T02:48:19;8.90;99.90
13203;DHT22;6666;51.626;7.530;2023-02-03T02:50:52;8.90;99.90
13203;DHT22;6666;51.626;7.530;2023-02-03T02:53:23;8.90;99.90
13203;DHT22;6666;51.626;7.530;2023-02-03T02:55:55;8.90;99.90
13203;DHT22;6666;51.626;7.530;2023-02-03T02:58:26;8.90;99.90
13203;DHT22;6666;51.626;7.530;2023-02-03T03:00:55;8.90;99.90
13203;DHT22;6666;51.626;7.530;2023-02-03T03:03:26;8.90;99.90
13203;DHT22;6666;51.626;7.530;2023-02-03T03:05:57;8.90;99.90
13203;DHT22;6666;51.626;7.530;2023-02-03T03:08:35;8.90;99.90
13203;DHT22;6666;51.626;7.530;2023-02-03T03:11:04;8.90;99.90
13203;DHT22;6666;51.626;7.530;2023-02-03T03:13:39;9.00;99.90
13203;DHT22;6666;51.626;7.530;2023-02-03T03:16:09;9.00;99.90
13203;DHT22;6666;51.626;7.530;2023-02-03T03:18:42;9.00;99.90
13203;DHT22;6666;51.626;7.530;2023-02-03T03:21:15;9.00;99.90
13203;DHT22;6666;51.626;7.530;2023-02-03T03:23:46;9.00;99.90
13203;DHT22;6666;51.626;7.530;2023-02-03T03:26:20;9.00;99.90
13203;DHT22;6666;51.626;7.530;2023-02-03T03:28:53;9.00;99.90
13203;DHT22;6666;51.626;7.530;2023-02-03T03:31:24;9.00;99.90
13203;DHT22;6666;51.626;7.530;2023-02-03T03:33:54;9.00;99.90
13203;DHT22;6666;51.626;7.530;2023-02-03T03:36:26;9.00;99.90
13203;DHT22;6666;51.626;7.530;2023-02-03T03:39:02;9.00;99.90
13203;DHT22;6666;51.626;7.530;2023-02-03T03:41:39;9.00;99.90
13203;DHT22;6666;51.626;7.530;2023-02-03T03:44:11;9.00;99.90
13203;DHT22;6666;51.626;7.530;2023-02-03T03:46:43;9.00;99.90
13203;DHT22;6666;51.626;7.530;2023-02-03T03:49:15;9.00;99.90
13203;DHT22;6666;51.626;7.530;2023-02-03T03:51:48;8.90;99.90
13203;DHT22;6666;51.626;7.530;2023-02-03T03:54:20;8.90;99.90
13203;DHT22;6666;51.626;7.530;2023-02-03T03:56:54;8.90;99.90
13203;DHT22;6666;51.626;7.530;2023-02-03T03:59:25;8.90;99.90
13203;DHT22;6666;51.626;7.530;2023-02-03T04:01:54;8.90;99.90
13203;DHT22;6666;51.626;7.530;2023-02-03T04:04:26;9.00;99.90
13203;DHT22;6666;51.626;7.530;2023-02-03T04:06:54;9.00;99.90
13203;DHT22;6666;51.626;7.530;2023-02-03T04:09:23;9.00;99.90
13203;DHT22;6666;51.626;7.530;2023-02-03T04:11:51;9.00;99.90
13203;DHT22;6666;51.626;7.530;2023-02-03T04:14:31;9.00;99.90
13203;DHT22;6666;51.626;7.530;2023-02-03T04:16:59;9.00;99.90
13203;DHT22;6666;51.626;7.530;2023-02-03T04:19:29;8.90;99.90
13203;DHT22;6666;51.626;7.530;2023-02-03T04:21:57;9.00;99.90
13203;DHT22;6666;51.626;7.530;2023-02-03T04:24:26;9.00;99.90
13203;DHT22;6666;51.626;7.530;2023-02-03T04:26:54;9.00;99.90
13203;DHT22;6666;51.626;7.530;2023-02-03T04:29:22;9.00;99.90
13203;DHT22;6666;51.626;7.530;2023-02-03T04:31:50;9.00;99.90
13203;DHT22;6666;51.626;7.530;2023-02-03T04:34:19;9.10;99.90
13203;DHT22;6666;51.626;7.530;2023-02-03T04:36:48;9.10;99.90
13203;DHT22;6666;51.626;7.530;2023-02-03T04:39:16;9.00;99.90
13203;DHT22;6666;51.626;7.530;2023-02-03T04:41:45;9.00;99.90
13203;DHT22;6666;51.626;7.530;2023-02-03T04:44:13;9.00;99.90
13203;DHT22;6666;51.626;7.530;2023-02-03T04:46:41;9.00;99.90
13203;DHT22;6666;51.626;7.530;2023-02-03T04:49:09;9.00;99.90
13203;DHT22;6666;51.626;7.530;2023-02-03T04:51:38;9.00;99.90
13203;DHT22;6666;51.626;7.530;2023-02-03T04:54:07;9.00;99.90
13203;DHT22;6666;51.626;7.530;2023-02-03T04:56:37;9.00;99.90
13203;DHT22;6666;51.626;7.530;2023-02-03T04:59:05;9.00;99.90
13203;DHT22;6666;51.626;7.530;2023-02-03T05:01:34;9.00;99.90
13203;DHT22;6666;51.626;7.530;2023-02-03T05:04:02;9.00;99.90
13203;DHT22;6666;51.626;7.530;2023-02-03T05:06:30;9.00;99.90
13203;DHT22;6666;51.626;7.530;2023-02-03T05:08:59;9.00;99.90
13203;DHT22;6666;51.626;7.530;2023-02-03T05:11:29;9.00;99.90
13203;DHT22;6666;51.626;7.530;2023-02-03T05:13:57;9.00;99.90
13203;DHT22;6666;51.626;7.530;2023-02-03T05:16:25;9.00;99.90
13203;DHT22;6666;51.626;7.530;2023-02-03T05:18:54;9.00;99.90
13203;DHT22;6666;51.626;7.530;2023-02-03T05:21:22;9.00;99.90
13203;DHT22;6666;51.626;7.530;2023-02-03T05:23:50;9.00;99.90
13203;DHT22;6666;51.626;7.530;2023-02-03T05:26:18;9.00;99.90
13203;DHT22;6666;51.626;7.530;2023-02-03T05:28:48;9.00;99.90
13203;DHT22;6666;51.626;7.530;2023-02-03T05:31:18;9.00;99.90
13203;DHT22;6666;51.626;7.530;2023-02-03T05:33:47;9.00;99.90
13203;DHT22;6666;51.626;7.530;2023-02-03T05:36:15;9.10;99.90
13203;DHT22;6666;51.626;7.530;2023-02-03T05:38:44;9.00;99.90
13203;DHT22;6666;51.626;7.530;2023-02-03T05:41:12;9.00;99.90
13203;DHT22;6666;51.626;7.530;2023-02-03T05:43:59;9.00;99.90
13203;DHT22;6666;51.626;7.530;2023-02-03T05:46:27;9.00;99.90
13203;DHT22;6666;51.626;7.530;2023-02-03T05:48:55;9.00;99.90
13203;DHT22;6666;51.626;7.530;2023-02-03T05:51:24;9.00;99.90
13203;DHT22;6666;51.626;7.530;2023-02-03T05:53:52;9.00;99.90
13203;DHT22;6666;51.626;7.530;2023-02-03T05:56:20;9.00;99.90
13203;DHT22;6666;51.626;7.530;2023-02-03T05:58:49;9.00;99.90
13203;DHT22;6666;51.626;7.530;2023-02-03T06:01:20;9.00;99.90
13203;DHT22;6666;51.626;7.530;2023-02-03T06:03:49;9.00;99.90
13203;DHT22;6666;51.626;7.530;2023-02-03T06:06:17;9.20;99.90
13203;DHT22;6666;51.626;7.530;2023-02-03T06:08:46;9.20;99.90
13203;DHT22;6666;51.626;7.530;2023-02-03T06:11:14;9.10;99.90
13203;DHT22;6666;51.626;7.530;2023-02-03T06:13:42;9.10;99.90
13203;DHT22;6666;51.626;7.530;2023-02-03T06:16:11;9.10;99.90
13203;DHT22;6666;51.626;7.530;2023-02-03T06:18:40;9.10;99.90
13203;DHT22;6666;51.626;7.530;2023-02-03T06:21:09;9.10;99.90
13203;DHT22;6666;51.626;7.530;2023-02-03T06:23:37;9.10;99.90
13203;DHT22;6666;51.626;7.530;2023-02-03T06:26:05;9.20;99.90
13203;DHT22;6666;51.626;7.530;2023-02-03T06:28:34;9.10;99.90
13203;DHT22;6666;51.626;7.530;2023-02-03T06:31:04;9.20;99.90
13203;DHT22;6666;51.626;7.530;2023-02-03T06:33:33;9.20;99.90
13203;DHT22;6666;51.626;7.530;2023-02-03T06:36:03;9.10;99.90
13203;DHT22;6666;51.626;7.530;2023-02-03T06:38:31;9.20;99.90
13203;DHT22;6666;51.626;7.530;2023-02-03T06:40:59;9.10;99.90
13203;DHT22;6666;51.626;7.530;2023-02-03T06:43:28;9.20;99.90
13203;DHT22;6666;51.626;7.530;2023-02-03T06:45:56;9.10;99.90
13203;DHT22;6666;51.626;7.530;2023-02-03T06:48:24;9.10;99.90
13203;DHT22;6666;51.626;7.530;2023-02-03T06:50:53;9.20;99.90
13203;DHT22;6666;51.626;7.530;2023-02-03T06:53:23;9.20;99.90
13203;DHT22;6666;51.626;7.530;2023-02-03T06:55:51;9.20;99.90
13203;DHT22;6666;51.626;7.530;2023-02-03T06:58:19;9.10;99.90
13203;DHT22;6666;51.626;7.530;2023-02-03T07:00:47;9.10;99.90
13203;DHT22;6666;51.626;7.530;2023-02-03T07:03:17;9.10;99.90
13203;DHT22;6666;51.626;7.530;2023-02-03T07:05:45;9.10;99.90
13203;DHT22;6666;51.626;7.530;2023-02-03T07:08:14;9.10;99.90
13203;DHT22;6666;51.626;7.530;2023-02-03T07:10:43;9.10;99.90
13203;DHT22;6666;51.626;7.530;2023-02-03T07:13:11;9.00;99.90
13203;DHT22;6666;51.626;7.530;2023-02-03T07:15:40;9.00;99.90
13203;DHT22;6666;51.626;7.530;2023-02-03T07:18:08;9.00;99.90
13203;DHT22;6666;51.626;7.530;2023-02-03T07:20:38;9.00;99.90
13203;DHT22;6666;51.626;7.530;2023-02-03T07:23:07;9.00;99.90
13203;DHT22;6666;51.626;7.530;2023-02-03T07:25:36;9.10;99.90
13203;DHT22;6666;51.626;7.530;2023-02-03T07:28:05;9.10;99.90
13203;DHT22;6666;51.626;7.530;2023-02-03T07:30:34;9.10;99.90
13203;DHT22;6666;51.626;7.530;2023-02-03T07:33:02;9.10;99.90
13203;DHT22;6666;51.626;7.530;2023-02-03T07:35:30;9.10;99.90
13203;DHT22;6666;51.626;7.530;2023-02-03T07:37:59;9.10;99.90
13203;DHT22;6666;51.626;7.530;2023-02-03T07:40:27;9.10;99.90
13203;DHT22;6666;51.626;7.530;2023-02-03T07:42:56;9.20;99.90
13203;DHT22;6666;51.626;7.530;2023-02-03T07:45:27;9.10;99.90
13203;DHT22;6666;51.626;7.530;2023-02-03T07:47:55;9.10;99.90
13203;DHT22;6666;51.626;7.530;2023-02-03T07:50:23;9.10;99.90
13203;DHT22;6666;51.626;7.530;2023-02-03T07:52:52;9.10;99.90
13203;DHT22;6666;51.626;7.530;2023-02-03T07:55:21;9.10;99.90
13203;DHT22;6666;51.626;7.530;2023-02-03T07:57:50;9.10;99.90
13203;DHT22;6666;51.626;7.530;2023-02-03T08:00:20;9.20;99.90
13203;DHT22;6666;51.626;7.530;2023-02-03T08:02:50;9.20;99.90
13203;DHT22;6666;51.626;7.530;2023-02-03T08:05:18;9.20;99.90
13203;DHT22;6666;51.626;7.530;2023-02-03T08:07:47;9.20;99.90
13203;DHT22;6666;51.626;7.530;2023-02-03T08:10:15;9.20;99.90
13203;DHT22;6666;51.626;7.530;2023-02-03T08:12:44;9.20;99.90
13203;DHT22;6666;51.626;7.530;2023-02-03T08:15:13;9.20;99.90
13203;DHT22;6666;51.626;7.530;2023-02-03T08:17:41;9.20;99.90
13203;DHT22;6666;51.626;7.530;2023-02-03T08:20:12;9.20;99.90
13203;DHT22;6666;51.626;7.530;2023-02-03T08:22:40;9.20;99.90
13203;DHT22;6666;51.626;7.530;2023-02-03T08:25:08;9.30;99.90
13203;DHT22;6666;51.626;7.530;2023-02-03T08:27:37;9.30;99.90
13203;DHT22;6666;51.626;7.530;2023-02-03T08:30:08;9.30;99.90
13203;DHT22;6666;51.626;7.530;2023-02-03T08:32:37;9.30;99.90
13203;DHT22;6666;51.626;7.530;2023-02-03T08:35:06;9.30;99.90
13203;DHT22;6666;51.626;7.530;2023-02-03T08:37:37;9.30;99.90
13203;DHT22;6666;51.626;7.530;2023-02-03T08:40:06;9.30;99.90
13203;DHT22;6666;51.626;7.530;2023-02-03T08:42:34;9.30;99.90
13203;DHT22;6666;51.626;7.530;2023-02-03T08:45:03;9.30;99.90
13203;DHT22;6666;51.626;7.530;2023-02-03T08:47:32;9.30;99.90
13203;DHT22;6666;51.626;7.530;2023-02-03T08:50:03;9.40;99.90
13203;DHT22;6666;51.626;7.530;2023-02-03T08:52:32;9.30;99.90
13203;DHT22;6666;51.626;7.530;2023-02-03T08:55:01;9.40;99.90
13203;DHT22;6666;51.626;7.530;2023-02-03T08:57:32;9.30;99.90
13203;DHT22;6666;51.626;7.530;2023-02-03T09:00:01;9.40;99.90
13203;DHT22;6666;51.626;7.530;2023-02-03T09:02:29;9.40;99.90
13203;DHT22;6666;51.626;7.530;2023-02-03T09:04:57;9.40;99.90
13203;DHT22;6666;51.626;7.530;2023-02-03T09:07:26;9.50;99.90
13203;DHT22;6666;51.626;7.530;2023-02-03T09:09:54;9.50;99.90
13203;DHT22;6666;51.626;7.530;2023-02-03T09:12:24;9.40;99.90
13203;DHT22;6666;51.626;7.530;2023-02-03T09:14:52;9.60;99.90
13203;DHT22;6666;51.626;7.530;2023-02-03T09:17:21;9.50;99.90
13203;DHT22;6666;51.626;7.530;2023-02-03T09:19:49;9.60;99.90
13203;DHT22;6666;51.626;7.530;2023-02-03T09:22:17;9.60;99.90
13203;DHT22;6666;51.626;7.530;2023-02-03T09:24:46;9.60;99.90
13203;DHT22;6666;51.626;7.530;2023-02-03T09:27:16;9.60;99.90
13203;DHT22;6666;51.626;7.530;2023-02-03T09:29:46;9.60;99.90
13203;DHT22;6666;51.626;7.530;2023-02-03T09:32:14;9.60;99.90
13203;DHT22;6666;51.626;7.530;2023-02-03T09:34:42;9.60;99.90
13203;DHT22;6666;51.626;7.530;2023-02-03T09:37:11;9.60;99.90
13203;DHT22;6666;51.626;7.530;2023-02-03T09:39:40;9.70;99.90
13203;DHT22;6666;51.626;7.530;2023-02-03T09:42:24;9.70;99.90
13203;DHT22;6666;51.626;7.530;2023-02-03T09:45:04;9.70;99.90
13203;DHT22;6666;51.626;7.530;2023-02-03T09:47:39;9.70;99.90
13203;DHT22;6666;51.626;7.530;2023-02-03T09:50:12;9.70;99.90
13203;DHT22;6666;51.626;7.530;2023-02-03T09:52:42;9.70;99.90
13203;DHT22;6666;51.626;7.530;2023-02-03T09:55:25;9.70;99.90
13203;DHT22;6666;51.626;7.530;2023-02-03T09:58:01;9.70;99.90
13203;DHT22;6666;51.626;7.530;2023-02-03T10:00:34;9.70;99.90
13203;DHT22;6666;51.626;7.530;2023-02-03T10:03:07;9.80;99.90
13203;DHT22;6666;51.626;7.530;2023-02-03T10:06:08;9.70;99.90
13203;DHT22;6666;51.626;7.530;2023-02-03T10:08:53;9.70;99.90
13203;DHT22;6666;51.626;7.530;2023-02-03T10:11:37;9.70;99.90
13203;DHT22;6666;51.626;7.530;2023-02-03T10:14:18;9.70;99.90
13203;DHT22;6666;51.626;7.530;2023-02-03T10:17:03;9.70;99.90
13203;DHT22;6666;51.626;7.530;2023-02-03T10:19:41;9.70;99.90
13203;DHT22;6666;51.626;7.530;2023-02-03T10:22:14;9.80;99.90
13203;DHT22;6666;51.626;7.530;2023-02-03T10:24:47;9.70;99.90
13203;DHT22;6666;51.626;7.530;2023-02-03T10:27:19;9.70;99.90
13203;DHT22;6666;51.626;7.530;2023-02-03T10:29:54;9.70;99.90
13203;DHT22;6666;51.626;7.530;2023-02-03T10:32:26;9.80;99.90
13203;DHT22;6666;51.626;7.530;2023-02-03T10:34:55;9.80;99.90
13203;DHT22;6666;51.626;7.530;2023-02-03T10:37:26;9.80;99.90
13203;DHT22;6666;51.626;7.530;2023-02-03T10:39:58;9.80;99.90
13203;DHT22;6666;51.626;7.530;2023-02-03T10:42:28;9.80;99.90
13203;DHT22;6666;51.626;7.530;2023-02-03T10:45:17;9.80;99.90
13203;DHT22;6666;51.626;7.530;2023-02-03T10:47:51;9.90;99.90
13203;DHT22;6666;51.626;7.530;2023-02-03T10:50:22;9.80;99.90
13203;DHT22;6666;51.626;7.530;2023-02-03T10:53:20;9.90;99.90
13203;DHT22;6666;51.626;7.530;2023-02-03T10:55:51;9.90;99.90
13203;DHT22;6666;51.626;7.530;2023-02-03T10:58:28;9.80;99.90
13203;DHT22;6666;51.626;7.530;2023-02-03T11:01:05;9.80;99.90
13203;DHT22;6666;51.626;7.530;2023-02-03T11:03:35;9.80;99.90
13203;DHT22;6666;51.626;7.530;2023-02-03T11:06:07;9.80;99.90
13203;DHT22;6666;51.626;7.530;2023-02-03T11:08:38;9.80;99.90
13203;DHT22;6666;51.626;7.530;2023-02-03T11:11:08;9.90;99.90
13203;DHT22;6666;51.626;7.530;2023-02-03T11:13:36;9.80;99.90
13203;DHT22;6666;51.626;7.530;2023-02-03T11:16:07;9.80;99.90
13203;DHT22;6666;51.626;7.530;2023-02-03T11:18:56;9.80;99.90
13203;DHT22;6666;51.626;7.530;2023-02-03T11:21:28;9.80;99.90
13203;DHT22;6666;51.626;7.530;2023-02-03T11:24:02;9.90;99.90
13203;DHT22;6666;51.626;7.530;2023-02-03T11:26:34;9.90;99.90
13203;DHT22;6666;51.626;7.530;2023-02-03T11:29:04;9.90;99.90
13203;DHT22;6666;51.626;7.530;2023-02-03T11:31:35;9.90;99.90
13203;DHT22;6666;51.626;7.530;2023-02-03T11:34:13;9.90;99.90
13203;DHT22;6666;51.626;7.530;2023-02-03T11:36:42;9.90;99.90
13203;DHT22;6666;51.626;7.530;2023-02-03T11:39:26;9.90;99.90
13203;DHT22;6666;51.626;7.530;2023-02-03T11:41:55;9.90;99.90
13203;DHT22;6666;51.626;7.530;2023-02-03T11:44:25;9.90;99.90
13203;DHT22;6666;51.626;7.530;2023-02-03T11:46:59;9.90;99.90
13203;DHT22;6666;51.626;7.530;2023-02-03T11:49:51;10.00;99.90
13203;DHT22;6666;51.626;7.530;2023-02-03T11:55:32;9.90;99.90
13203;DHT22;6666;51.626;7.530;2023-02-03T12:01:04;9.80;99.90
13203;DHT22;6666;51.626;7.530;2023-02-03T12:03:56;9.80;99.90
13203;DHT22;6666;51.626;7.530;2023-02-03T12:06:58;9.80;99.90
13203;DHT22;6666;51.626;7.530;2023-02-03T12:09:38;9.80;99.90
13203;DHT22;6666;51.626;7.530;2023-02-03T12:12:33;9.80;99.90
13203;DHT22;6666;51.626;7.530;2023-02-03T12:15:22;9.90;99.90
13203;DHT22;6666;51.626;7.530;2023-02-03T12:18:06;9.90;99.90
13203;DHT22;6666;51.626;7.530;2023-02-03T12:20:48;9.90;99.90
13203;DHT22;6666;51.626;7.530;2023-02-03T12:23:29;10.00;99.90
13203;DHT22;6666;51.626;7.530;2023-02-03T12:26:08;10.00;99.90
13203;DHT22;6666;51.626;7.530;2023-02-03T12:28:47;10.00;99.90
13203;DHT22;6666;51.626;7.530;2023-02-03T12:31:22;10.00;99.90
13203;DHT22;6666;51.626;7.530;2023-02-03T12:34:02;10.00;99.90
13203;DHT22;6666;51.626;7.530;2023-02-03T12:36:37;10.00;99.90
13203;DHT22;6666;51.626;7.530;2023-02-03T12:39:15;10.00;99.90
13203;DHT22;6666;51.626;7.530;2023-02-03T12:41:50;10.00;99.90
13203;DHT22;6666;51.626;7.530;2023-02-03T12:44:25;9.90;99.90
13203;DHT22;6666;51.626;7.530;2023-02-03T12:47:02;10.00;99.90
13203;DHT22;6666;51.626;7.530;2023-02-03T12:49:38;9.90;99.90
13203;DHT22;6666;51.626;7.530;2023-02-03T12:52:15;9.80;99.90
13203;DHT22;6666;51.626;7.530;2023-02-03T12:54:51;9.80;99.90
13203;DHT22;6666;51.626;7.530;2023-02-03T12:57:27;9.70;99.90
13203;DHT22;6666;51.626;7.530;2023-02-03T13:00:03;9.70;99.90
13203;DHT22;6666;51.626;7.530;2023-02-03T13:02:41;9.60;99.90
13203;DHT22;6666;51.626;7.530;2023-02-03T13:05:20;9.60;99.90
13203;DHT22;6666;51.626;7.530;2023-02-03T13:07:54;9.60;99.90
13203;DHT22;6666;51.626;7.530;2023-02-03T13:10:30;9.60;99.90
13203;DHT22;6666;51.626;7.530;2023-02-03T13:13:01;9.50;99.90
13203;DHT22;6666;51.626;7.530;2023-02-03T13:15:33;9.50;99.90
13203;DHT22;6666;51.626;7.530;2023-02-03T13:18:06;9.50;99.90
13203;DHT22;6666;51.626;7.530;2023-02-03T13:20:38;9.40;99.90
13203;DHT22;6666;51.626;7.530;2023-02-03T13:23:09;9.40;99.90
13203;DHT22;6666;51.626;7.530;2023-02-03T13:25:50;9.30;99.90
13203;DHT22;6666;51.626;7.530;2023-02-03T13:28:29;9.30;99.90
13203;DHT22;6666;51.626;7.530;2023-02-03T13:31:11;9.30;99.90
13203;DHT22;6666;51.626;7.530;2023-02-03T13:33:58;9.30;99.90
13203;DHT22;6666;51.626;7.530;2023-02-03T13:39:42;9.40;99.90
13203;DHT22;6666;51.626;7.530;2023-02-03T13:42:19;9.40;99.90
13203;DHT22;6666;51.626;7.530;2023-02-03T13:44:51;9.40;99.90
13203;DHT22;6666;51.626;7.530;2023-02-03T13:47:23;9.40;99.90
13203;DHT22;6666;51.626;7.530;2023-02-03T13:49:55;9.40;99.90
13203;DHT22;6666;51.626;7.530;2023-02-03T13:52:29;9.50;99.90
13203;DHT22;6666;51.626;7.530;2023-02-03T13:55:00;9.40;99.90
13203;DHT22;6666;51.626;7.530;2023-02-03T13:57:34;9.40;99.90
13203;DHT22;6666;51.626;7.530;2023-02-03T14:00:05;9.40;99.90
13203;DHT22;6666;51.626;7.530;2023-02-03T14:02:43;9.40;99.90
13203;DHT22;6666;51.626;7.530;2023-02-03T14:05:38;9.40;99.90
13203;DHT22;6666;51.626;7.530;2023-02-03T14:11:39;9.50;99.90
13203;DHT22;6666;51.626;7.530;2023-02-03T14:20:39;9.50;99.90
13203;DHT22;6666;51.626;7.530;2023-02-03T14:23:14;9.50;99.90
13203;DHT22;6666;51.626;7.530;2023-02-03T14:25:47;9.50;99.90
13203;DHT22;6666;51.626;7.530;2023-02-03T14:28:18;9.40;99.90
13203;DHT22;6666;51.626;7.530;2023-02-03T14:31:09;9.50;99.90
13203;DHT22;6666;51.626;7.530;2023-02-03T14:36:53;9.40;99.90
13203;DHT22;6666;51.626;7.530;2023-02-03T14:39:34;9.40;99.90
13203;DHT22;6666;51.626;7.530;2023-02-03T14:42:15;9.40;99.90
13203;DHT22;6666;51.626;7.530;2023-02-03T14:44:53;9.40;99.90
13203;DHT22;6666;51.626;7.530;2023-02-03T14:47:38;9.40;99.90
13203;DHT22;6666;51.626;7.530;2023-02-03T14:50:20;9.40;99.90
13203;DHT22;6666;51.626;7.530;2023-02-03T14:53:11;9.40;99.90
13203;DHT22;6666;51.626;7.530;2023-02-03T14:55:52;9.40;99.90
13203;DHT22;6666;51.626;7.530;2023-02-03T14:58:29;9.30;99.90
13203;DHT22;6666;51.626;7.530;2023-02-03T15:01:02;9.30;99.90
13203;DHT22;6666;51.626;7.530;2023-02-03T15:03:31;9.30;99.90
13203;DHT22;6666;51.626;7.530;2023-02-03T15:06:03;9.30;99.90
13203;DHT22;6666;51.626;7.530;2023-02-03T15:08:37;9.30;99.90
13203;DHT22;6666;51.626;7.530;2023-02-03T15:11:31;9.30;99.90
13203;DHT22;6666;51.626;7.530;2023-02-03T15:14:18;9.30;99.90
13203;DHT22;6666;51.626;7.530;2023-02-03T15:16:52;9.30;99.90
13203;DHT22;6666;51.626;7.530;2023-02-03T15:19:24;9.40;99.90
13203;DHT22;6666;51.626;7.530;2023-02-03T15:21:53;9.50;99.90
13203;DHT22;6666;51.626;7.530;2023-02-03T15:24:22;9.50;99.90
13203;DHT22;6666;51.626;7.530;2023-02-03T15:26:54;9.50;99.90
13203;DHT22;6666;51.626;7.530;2023-02-03T15:29:28;9.50;99.90
13203;DHT22;6666;51.626;7.530;2023-02-03T15:32:05;9.50;99.90
13203;DHT22;6666;51.626;7.530;2023-02-03T15:34:38;9.50;99.90
13203;DHT22;6666;51.626;7.530;2023-02-03T15:37:14;9.40;99.90
13203;DHT22;6666;51.626;7.530;2023-02-03T15:39:53;9.40;99.90
13203;DHT22;6666;51.626;7.530;2023-02-03T15:42:28;9.40;99.90
13203;DHT22;6666;51.626;7.530;2023-02-03T15:45:04;9.30;99.90
13203;DHT22;6666;51.626;7.530;2023-02-03T15:47:36;9.30;99.90
13203;DHT22;6666;51.626;7.530;2023-02-03T15:50:19;9.30;99.90
13203;DHT22;6666;51.626;7.530;2023-02-03T15:52:51;9.30;99.90
13203;DHT22;6666;51.626;7.530;2023-02-03T15:55:28;9.30;99.90
13203;DHT22;6666;51.626;7.530;2023-02-03T15:57:59;9.30;99.90
13203;DHT22;6666;51.626;7.530;2023-02-03T16:00:37;9.30;99.90
13203;DHT22;6666;51.626;7.530;2023-02-03T16:03:15;9.20;99.90
13203;DHT22;6666;51.626;7.530;2023-02-03T16:05:45;9.20;99.90
13203;DHT22;6666;51.626;7.530;2023-02-03T16:08:36;9.20;99.90
13203;DHT22;6666;51.626;7.530;2023-02-03T16:11:26;9.10;99.90
13203;DHT22;6666;51.626;7.530;2023-02-03T16:13:55;9.20;99.90
13203;DHT22;6666;51.626;7.530;2023-02-03T16:16:28;9.10;99.90
13203;DHT22;6666;51.626;7.530;2023-02-03T16:18:59;9.10;99.90
13203;DHT22;6666;51.626;7.530;2023-02-03T16:21:40;9.10;99.90
13203;DHT22;6666;51.626;7.530;2023-02-03T16:27:32;9.10;99.90
13203;DHT22;6666;51.626;7.530;2023-02-03T16:30:30;9.10;99.90
13203;DHT22;6666;51.626;7.530;2023-02-03T16:33:16;9.10;99.90
13203;DHT22;6666;51.626;7.530;2023-02-03T16:36:10;9.10;99.90
13203;DHT22;6666;51.626;7.530;2023-02-03T16:38:57;9.10;99.90
13203;DHT22;6666;51.626;7.530;2023-02-03T16:41:46;9.10;99.90
13203;DHT22;6666;51.626;7.530;2023-02-03T16:44:33;9.10;99.90
13203;DHT22;6666;51.626;7.530;2023-02-03T16:47:24;9.10;99.90
13203;DHT22;6666;51.626;7.530;2023-02-03T16:50:14;9.10;99.90
13203;DHT22;6666;51.626;7.530;2023-02-03T16:53:05;9.10;99.90
13203;DHT22;6666;51.626;7.530;2023-02-03T16:55:36;9.00;99.90
13203;DHT22;6666;51.626;7.530;2023-02-03T16:58:04;9.00;99.90
13203;DHT22;6666;51.626;7.530;2023-02-03T17:00:34;9.00;99.90
13203;DHT22;6666;51.626;7.530;2023-02-03T17:03:03;8.90;99.90
13203;DHT22;6666;51.626;7.530;2023-02-03T17:05:35;8.90;99.90